Time;durP1;ratioP1;P1;durP2;ratioP2;P2;SDS_P1;SDS_P2;PMS_P1;PMS_P2;Temp;Humidity;BMP_temperature;BMP_pressure;BME280_temperature;BME280_humidity;BME280_pressure;Samples;Min_cycle;Max_cycle;Signal;HPM_P1;HPM_P2
2021/12/01 00:00:41;;;;;;;;;;;;;;;13.19;63.40;99353.50;4988612;28;6787;-88
2021/12/01 00:03:06;;;;;;;;;;;;;;;13.20;63.04;99339.78;5002973;28;8386;-88
2021/12/01 00:05:34;;;;;;;;;;;;;;;13.19;63.47;99348.34;4971775;28;7135;-88
2021/12/01 00:08:00;;;;;;;;;;;;;;;13.20;62.76;99338.94;5020999;28;7238;-88
2021/12/01 00:10:28;;;;;;;;;;;;;;;13.20;63.23;99326.09;4987124;28;8407;-88
2021/12/01 00:12:55;;;;;;;;;;;;;;;13.20;63.85;99313.22;4945020;28;9801;-88
2021/12/01 00:15:21;;;;;;;;;;;;;;;13.20;63.27;99318.38;4974744;28;7406;-88
2021/12/01 00:17:47;;;;;;;;;;;;;;;13.19;63.21;99316.63;5003582;28;7124;-87
2021/12/01 00:20:18;;;;;;;;;;;;;;;13.17;62.66;99306.31;4987467;28;7290;-88
2021/12/01 00:22:44;;;;;;;;;;;;;;;13.14;63.38;99293.38;4988743;28;7262;-89
2021/12/01 00:25:14;;;;;;;;;;;;;;;13.15;62.81;99300.25;4973315;28;6986;-88
2021/12/01 00:27:46;;;;;;;;;;;;;;;13.17;62.78;99298.56;4988151;28;7309;-88
2021/12/01 00:30:12;;;;;;;;;;;;;;;13.18;62.74;99292.59;4986258;28;6982;-89
2021/12/01 00:32:38;;;;;;;;;;;;;;;13.14;63.10;99270.22;5003922;28;7076;-89
2021/12/01 00:35:06;;;;;;;;;;;;;;;13.17;62.76;99272.84;4972250;28;8237;-89
2021/12/01 00:37:32;;;;;;;;;;;;;;;13.15;62.94;99248.81;4985291;28;8040;-89
2021/12/01 00:39:58;;;;;;;;;;;;;;;13.15;62.55;99248.81;4945822;28;7048;-89
2021/12/01 00:42:24;;;;;;;;;;;;;;;13.15;63.49;99233.38;4995951;28;6971;-87
2021/12/01 00:44:58;;;;;;;;;;;;;;;13.14;63.08;99229.06;4960051;28;6967;-87
2021/12/01 00:47:31;;;;;;;;;;;;;;;13.12;62.82;99225.56;5018920;28;6829;-88
2021/12/01 00:49:57;;;;;;;;;;;;;;;13.09;62.74;99207.53;4987589;28;7241;-87
2021/12/01 00:52:24;;;;;;;;;;;;;;;13.06;62.93;99216.03;4980269;28;7687;-87
2021/12/01 00:54:50;;;;;;;;;;;;;;;13.00;62.84;99202.19;5005093;28;7553;-87
2021/12/01 00:57:15;;;;;;;;;;;;;;;12.96;62.96;99203.84;5003091;28;8071;-87
2021/12/01 00:59:41;;;;;;;;;;;;;;;12.94;63.21;99207.22;4964100;28;8841;-87
2021/12/01 01:02:07;;;;;;;;;;;;;;;12.90;63.03;99202.03;4971690;28;7479;-87
2021/12/01 01:04:38;;;;;;;;;;;;;;;12.86;63.17;99189.97;5004009;28;6995;-86
2021/12/01 01:07:04;;;;;;;;;;;;;;;12.85;63.24;99172.81;4972204;28;8606;-86
2021/12/01 01:09:32;;;;;;;;;;;;;;;12.82;63.28;99175.28;4966819;28;7465;-86
2021/12/01 01:17:37;;;;;;;;;;;;;;;12.75;63.28;99171.75;5000841;28;7247;-86
2021/12/01 01:20:08;;;;;;;;;;;;;;;12.74;62.95;99170.00;4982675;28;7205;-86
2021/12/01 01:22:35;;;;;;;;;;;;;;;12.74;63.76;99161.41;4956454;28;7009;-87
2021/12/01 01:25:01;;;;;;;;;;;;;;;12.75;63.56;99160.63;4987287;28;7076;-86
2021/12/01 01:27:27;;;;;;;;;;;;;;;12.73;63.28;99167.41;4963498;28;6975;-87
2021/12/01 01:29:53;;;;;;;;;;;;;;;12.71;63.56;99156.22;4981516;28;7168;-87
2021/12/01 01:32:18;;;;;;;;;;;;;;;12.72;62.78;99155.38;4946371;28;6941;-87
2021/12/01 01:34:44;;;;;;;;;;;;;;;12.69;63.47;99156.19;4949449;28;7289;-88
2021/12/01 01:37:10;;;;;;;;;;;;;;;12.69;63.05;99152.78;4952978;28;7017;-88
2021/12/01 01:39:35;;;;;;;;;;;;;;;12.67;63.23;99149.31;5002931;28;7013;-87
2021/12/01 01:42:01;;;;;;;;;;;;;;;12.66;63.29;99140.72;4988140;28;7385;-88
2021/12/01 01:44:30;;;;;;;;;;;;;;;12.62;62.94;99119.22;4968528;28;7263;-88
2021/12/01 01:46:56;;;;;;;;;;;;;;;12.63;63.72;99126.09;4963660;28;7205;-87
2021/12/01 01:49:34;;;;;;;;;;;;;;;12.59;63.06;99119.19;4987258;28;6784;-87
2021/12/01 01:52:00;;;;;;;;;;;;;;;12.58;63.71;99107.16;4987279;28;9729;-87
2021/12/01 01:54:26;;;;;;;;;;;;;;;12.59;63.68;99097.72;5019505;28;7194;-87
2021/12/01 01:56:51;;;;;;;;;;;;;;;12.54;63.18;99082.22;4988683;28;6779;-87
2021/12/01 01:59:17;;;;;;;;;;;;;;;12.57;63.15;99084.88;4967885;28;6788;-87
2021/12/01 02:01:46;;;;;;;;;;;;;;;12.56;63.30;99065.16;4987009;28;6944;-87
2021/12/01 02:04:16;;;;;;;;;;;;;;;12.53;63.03;99067.66;4970276;28;7110;-87
2021/12/01 02:06:46;;;;;;;;;;;;;;;12.53;63.47;99059.94;4986313;28;8133;-87
2021/12/01 02:09:13;;;;;;;;;;;;;;;12.55;63.25;99072.81;4973652;28;8524;-87
2021/12/01 02:11:38;;;;;;;;;;;;;;;12.56;63.11;99072.88;4997036;28;7205;-88
2021/12/01 02:14:05;;;;;;;;;;;;;;;12.57;62.51;99069.44;4963857;28;6945;-88
2021/12/01 02:16:32;;;;;;;;;;;;;;;12.61;62.67;99055.81;5018958;28;6993;-87
2021/12/01 02:18:58;;;;;;;;;;;;;;;12.60;62.32;99043.78;5015895;28;6997;-87
2021/12/01 02:21:27;;;;;;;;;;;;;;;12.63;62.32;99043.84;4969846;28;8328;-87
2021/12/01 02:23:57;;;;;;;;;;;;;;;12.67;62.10;99033.63;4970507;28;6980;-87
2021/12/01 02:26:25;;;;;;;;;;;;;;;12.70;61.23;99032.00;5001854;28;7241;-87
2021/12/01 02:28:57;;;;;;;;;;;;;;;12.73;61.07;99023.44;4986013;28;7244;-87
2021/12/01 02:31:25;;;;;;;;;;;;;;;12.74;61.28;99014.88;5017037;28;7241;-87
2021/12/01 02:33:53;;;;;;;;;;;;;;;12.77;60.43;99026.09;4986263;28;7188;-88
2021/12/01 02:36:19;;;;;;;;;;;;;;;12.80;60.96;99021.88;4963223;28;8638;-88
2021/12/01 02:38:48;;;;;;;;;;;;;;;12.82;60.14;99027.88;4983351;28;7384;-88
2021/12/01 02:41:15;;;;;;;;;;;;;;;12.83;60.72;99016.75;5002793;28;7324;-88
2021/12/01 02:43:45;;;;;;;;;;;;;;;12.84;59.90;99011.63;4987216;28;7183;-87
2021/12/01 02:46:14;;;;;;;;;;;;;;;12.87;59.62;99010.81;4960672;28;7385;-87
2021/12/01 02:48:41;;;;;;;;;;;;;;;12.87;59.91;98998.84;4971613;28;7032;-87
2021/12/01 02:51:09;;;;;;;;;;;;;;;12.88;59.72;98987.72;4946008;28;6970;-87
2021/12/01 02:53:36;;;;;;;;;;;;;;;12.90;60.25;99001.44;4998669;28;6984;-87
2021/12/01 02:56:05;;;;;;;;;;;;;;;12.92;59.51;98999.75;4969637;28;7417;-87
2021/12/01 02:58:33;;;;;;;;;;;;;;;12.92;59.83;98997.19;5017385;28;7828;-87
2021/12/01 03:01:05;;;;;;;;;;;;;;;12.94;59.34;98980.91;4992223;28;7201;-87
2021/12/01 03:03:31;;;;;;;;;;;;;;;12.92;59.46;98978.34;4960201;28;7214;-87
2021/12/01 03:05:58;;;;;;;;;;;;;;;12.93;59.95;98980.06;5015325;28;7185;-87
2021/12/01 03:08:24;;;;;;;;;;;;;;;12.89;59.41;98963.72;5000391;28;7073;-87
2021/12/01 03:10:53;;;;;;;;;;;;;;;12.87;59.37;98960.28;4983087;28;6955;-87
2021/12/01 03:13:22;;;;;;;;;;;;;;;12.85;59.98;98964.53;4999411;28;6979;-87
2021/12/01 03:15:48;;;;;;;;;;;;;;;12.80;59.75;98958.44;4969056;28;6969;-87
2021/12/01 03:18:15;;;;;;;;;;;;;;;12.76;59.61;98966.94;5021070;28;7206;-87
2021/12/01 03:20:42;;;;;;;;;;;;;;;12.69;59.61;98960.81;5002334;28;6807;-87
2021/12/01 03:23:09;;;;;;;;;;;;;;;12.62;59.66;98954.72;4949668;28;8554;-87
2021/12/01 03:25:36;;;;;;;;;;;;;;;12.53;60.03;98931.44;5000169;28;8883;-87
2021/12/01 03:28:05;;;;;;;;;;;;;;;12.45;61.18;98939.03;5005454;28;8435;-87
2021/12/01 03:30:34;;;;;;;;;;;;;;;12.38;61.20;98944.91;4972819;28;8893;-89
2021/12/01 03:33:01;;;;;;;;;;;;;;;12.33;61.36;98929.41;4999617;28;8376;-89
2021/12/01 03:35:27;;;;;;;;;;;;;;;12.29;61.48;98921.63;4989509;28;8415;-88
2021/12/01 03:37:53;;;;;;;;;;;;;;;12.24;61.15;98913.81;5004869;28;6987;-88
2021/12/01 03:40:19;;;;;;;;;;;;;;;12.20;61.44;98922.34;4989228;28;7265;-88
2021/12/01 03:42:45;;;;;;;;;;;;;;;12.16;61.61;98915.38;5004841;28;6860;-88
2021/12/01 03:45:14;;;;;;;;;;;;;;;12.12;61.68;98895.66;5000103;28;6939;-88
2021/12/01 03:47:40;;;;;;;;;;;;;;;12.07;61.69;98891.31;5003200;28;6989;-88
2021/12/01 03:50:07;;;;;;;;;;;;;;;12.06;61.93;98881.00;5002992;28;6977;-89
2021/12/01 03:52:33;;;;;;;;;;;;;;;12.02;61.82;98879.16;4985160;28;7154;-89
2021/12/01 03:54:59;;;;;;;;;;;;;;;11.98;61.63;98868.00;4988822;28;6958;-89
2021/12/01 03:57:25;;;;;;;;;;;;;;;11.95;62.38;98867.91;4985186;28;7006;-89
2021/12/01 03:59:52;;;;;;;;;;;;;;;11.92;62.25;98847.34;4966713;28;7160;-89
2021/12/01 04:02:18;;;;;;;;;;;;;;;11.89;62.07;98858.41;5015627;28;7145;-89
2021/12/01 04:04:44;;;;;;;;;;;;;;;11.88;62.18;98840.41;4971153;28;7182;-88
2021/12/01 04:07:10;;;;;;;;;;;;;;;11.86;62.42;98836.94;5001111;28;6948;-89
2021/12/01 04:09:40;;;;;;;;;;;;;;;11.84;62.31;98828.38;5003042;28;6948;-89
2021/12/01 04:12:07;;;;;;;;;;;;;;;11.82;61.90;98810.34;4986566;28;7147;-88
2021/12/01 04:14:33;;;;;;;;;;;;;;;11.81;62.06;98809.50;5016515;28;7049;-87
2021/12/01 04:16:59;;;;;;;;;;;;;;;11.81;61.92;98804.38;4987402;28;6963;-87
2021/12/01 04:19:24;;;;;;;;;;;;;;;11.85;61.70;98804.41;5020250;28;7542;-87
2021/12/01 04:21:50;;;;;;;;;;;;;;;11.91;61.94;98784.00;4988137;28;7146;-87
2021/12/01 04:24:18;;;;;;;;;;;;;;;11.93;61.58;98782.31;4969437;28;7507;-87
2021/12/01 04:26:44;;;;;;;;;;;;;;;11.94;61.39;98778.91;5002815;28;7074;-87
2021/12/01 04:29:09;;;;;;;;;;;;;;;11.99;61.05;98766.13;5015598;28;6970;-88
2021/12/01 04:31:38;;;;;;;;;;;;;;;12.00;61.20;98753.34;5001056;28;6879;-88
2021/12/01 04:34:05;;;;;;;;;;;;;;;12.04;60.77;98754.28;4966110;28;6975;-88
2021/12/01 04:36:34;;;;;;;;;;;;;;;12.05;60.71;98744.03;5020493;28;7123;-88
2021/12/01 04:39:03;;;;;;;;;;;;;;;12.08;60.73;98732.94;4970405;28;6978;-88
2021/12/01 04:41:36;;;;;;;;;;;;;;;12.08;60.09;98728.69;4965883;28;6969;-88
2021/12/01 04:44:08;;;;;;;;;;;;;;;12.11;60.37;98732.13;4969876;28;6934;-87
2021/12/01 04:46:40;;;;;;;;;;;;;;;12.17;60.25;98735.66;4971350;28;6820;-87
2021/12/01 04:49:08;;;;;;;;;;;;;;;12.19;60.10;98727.97;4982895;28;7237;-87
2021/12/01 04:51:35;;;;;;;;;;;;;;;12.22;59.42;98717.72;4968655;28;7640;-89
2021/12/01 04:54:03;;;;;;;;;;;;;;;12.23;59.44;98714.31;4984734;28;7210;-89
2021/12/01 04:56:30;;;;;;;;;;;;;;;12.24;59.13;98679.22;4970048;28;6799;-89
2021/12/01 04:58:55;;;;;;;;;;;;;;;12.18;59.61;98698.84;5003748;28;7373;-89
2021/12/01 05:01:21;;;;;;;;;;;;;;;12.13;59.45;98681.66;5000464;28;8379;-89
2021/12/01 05:03:47;;;;;;;;;;;;;;;12.04;59.72;98680.66;4982388;28;7224;-89
2021/12/01 05:06:13;;;;;;;;;;;;;;;12.00;59.74;98660.03;5016136;28;8356;-89
2021/12/01 05:08:39;;;;;;;;;;;;;;;11.92;59.89;98647.94;4954405;28;8433;-89
2021/12/01 05:11:05;;;;;;;;;;;;;;;11.90;60.08;98656.47;4987462;28;6973;-89
2021/12/01 05:13:31;;;;;;;;;;;;;;;11.86;60.15;98634.16;4980939;28;7062;-89
2021/12/01 05:15:57;;;;;;;;;;;;;;;11.82;60.41;98633.25;5002369;28;6849;-89
2021/12/01 05:18:23;;;;;;;;;;;;;;;11.79;60.84;98623.81;4970762;28;8786;-89
2021/12/01 05:20:49;;;;;;;;;;;;;;;11.77;60.69;98599.81;4966546;28;7027;-89
2021/12/01 05:23:15;;;;;;;;;;;;;;;11.77;61.07;98601.53;4986667;28;6917;-88
2021/12/01 05:25:43;;;;;;;;;;;;;;;11.74;61.31;98586.94;4969947;28;7143;-88
2021/12/01 05:28:08;;;;;;;;;;;;;;;11.71;61.53;98570.63;5005093;28;6962;-88
2021/12/01 05:30:35;;;;;;;;;;;;;;;11.71;61.55;98584.34;5017567;28;7200;-88
2021/12/01 05:33:05;;;;;;;;;;;;;;;11.70;61.46;98582.63;4948981;28;7333;-88
2021/12/01 05:35:32;;;;;;;;;;;;;;;11.72;61.53;98556.97;5001815;28;7210;-88
2021/12/01 05:37:58;;;;;;;;;;;;;;;11.74;61.57;98563.84;4963277;28;8269;-88
2021/12/01 05:40:24;;;;;;;;;;;;;;;11.74;61.60;98568.97;4979304;28;8416;-88
2021/12/01 05:42:49;;;;;;;;;;;;;;;11.76;61.53;98548.47;4968248;28;6987;-87
2021/12/01 05:45:16;;;;;;;;;;;;;;;11.77;61.04;98535.66;4948340;28;8294;-88
2021/12/01 05:47:42;;;;;;;;;;;;;;;11.75;61.01;98545.03;4962806;28;7222;-88
2021/12/01 05:50:08;;;;;;;;;;;;;;;11.77;60.82;98527.09;5015960;28;8701;-87
2021/12/01 05:52:34;;;;;;;;;;;;;;;11.78;60.70;98521.13;4964127;28;7340;-88
2021/12/01 05:54:59;;;;;;;;;;;;;;;11.78;60.76;98508.28;5001909;28;6866;-88
2021/12/01 05:57:25;;;;;;;;;;;;;;;11.78;60.87;98514.31;4986912;28;7245;-88
2021/12/01 05:59:51;;;;;;;;;;;;;;;11.79;60.61;98503.19;4979234;28;6954;-88
2021/12/01 06:02:17;;;;;;;;;;;;;;;11.80;61.27;98504.91;4964076;28;9440;-88
2021/12/01 06:04:43;;;;;;;;;;;;;;;11.80;60.95;98474.09;4965652;28;7176;-88
2021/12/01 06:07:09;;;;;;;;;;;;;;;11.82;61.23;98494.63;4983217;28;7036;-88
2021/12/01 06:09:35;;;;;;;;;;;;;;;11.81;60.79;98486.09;4978748;28;7291;-88
2021/12/01 06:12:01;;;;;;;;;;;;;;;11.85;60.87;98501.53;4986265;28;8816;-88
2021/12/01 06:14:27;;;;;;;;;;;;;;;11.91;60.78;98478.50;5018437;28;7073;-88
2021/12/01 06:16:54;;;;;;;;;;;;;;;11.93;60.95;98452.00;5002995;28;8482;-88
2021/12/01 06:19:20;;;;;;;;;;;;;;;11.96;60.22;98464.00;5003573;28;6957;-88
2021/12/01 06:21:46;;;;;;;;;;;;;;;12.03;60.26;98454.72;4986674;28;7141;-88
2021/12/01 06:24:11;;;;;;;;;;;;;;;12.03;59.88;98465.84;4962373;28;6944;-88
2021/12/01 06:26:37;;;;;;;;;;;;;;;12.06;60.02;98450.44;4964064;28;7188;-88
2021/12/01 06:29:04;;;;;;;;;;;;;;;12.09;59.67;98454.75;4947962;28;6977;-88
2021/12/01 06:31:30;;;;;;;;;;;;;;;12.11;60.11;98436.81;5002506;28;7072;-88
2021/12/01 06:33:58;;;;;;;;;;;;;;;12.11;59.81;98441.94;4984256;28;7741;-88
2021/12/01 06:36:25;;;;;;;;;;;;;;;12.13;60.02;98442.81;5000077;28;8778;-88
2021/12/01 06:38:51;;;;;;;;;;;;;;;12.11;59.43;98441.94;4999978;28;7003;-88
2021/12/01 06:41:16;;;;;;;;;;;;;;;12.06;60.02;98437.59;4962477;28;7193;-88
2021/12/01 06:43:43;;;;;;;;;;;;;;;12.02;59.96;98428.16;4963206;28;8770;-87
2021/12/01 06:46:08;;;;;;;;;;;;;;;11.98;60.53;98420.38;4967690;28;6990;-87
2021/12/01 06:48:34;;;;;;;;;;;;;;;11.95;60.48;98418.63;4987071;28;7109;-88
2021/12/01 06:51:00;;;;;;;;;;;;;;;11.92;61.01;98436.59;4983447;28;6807;-88
2021/12/01 06:53:26;;;;;;;;;;;;;;;11.90;61.25;98416.03;5017135;28;7043;-88
2021/12/01 06:55:53;;;;;;;;;;;;;;;11.90;61.47;98423.72;4987226;28;7183;-88
2021/12/01 06:58:19;;;;;;;;;;;;;;;11.92;61.41;98388.66;5002506;28;9014;-87
2021/12/01 07:00:45;;;;;;;;;;;;;;;11.97;61.48;98408.41;5003395;28;6974;-87
2021/12/01 07:03:11;;;;;;;;;;;;;;;12.00;60.70;98396.44;4970868;28;8291;-87
2021/12/01 07:05:36;;;;;;;;;;;;;;;12.03;61.26;98396.50;5003002;28;7686;-88
2021/12/01 07:08:04;;;;;;;;;;;;;;;12.08;60.38;98392.28;4984567;28;8123;-88
2021/12/01 07:10:30;;;;;;;;;;;;;;;12.14;60.86;98378.66;5001912;28;7225;-88
2021/12/01 07:12:56;;;;;;;;;;;;;;;12.18;60.58;98384.69;4961988;28;7263;-88
2021/12/01 07:15:22;;;;;;;;;;;;;;;12.17;60.61;98382.97;4947095;28;7165;-87
2021/12/01 07:17:48;;;;;;;;;;;;;;;12.16;60.21;98383.78;4985302;28;8623;-87
2021/12/01 07:20:14;;;;;;;;;;;;;;;12.13;61.02;98358.06;5002418;28;6952;-87
2021/12/01 07:22:42;;;;;;;;;;;;;;;12.08;60.86;98353.78;4970794;28;7172;-87
2021/12/01 07:25:09;;;;;;;;;;;;;;;12.11;60.74;98360.63;4985027;28;6992;-87
2021/12/01 07:27:35;;;;;;;;;;;;;;;12.15;60.97;98349.53;5002646;28;8407;-88
2021/12/01 07:30:04;;;;;;;;;;;;;;;12.18;60.51;98348.72;4985374;28;8976;-88
2021/12/01 07:32:30;;;;;;;;;;;;;;;12.17;60.36;98358.13;5002492;28;7179;-88
2021/12/01 07:34:57;;;;;;;;;;;;;;;12.16;60.57;98345.25;4963875;28;7753;-88
2021/12/01 07:37:22;;;;;;;;;;;;;;;12.10;60.74;98348.63;4986159;28;8458;-88
2021/12/01 07:39:48;;;;;;;;;;;;;;;12.07;61.12;98344.34;4969136;28;7175;-88
2021/12/01 07:42:16;;;;;;;;;;;;;;;12.04;61.39;98348.59;4979360;28;6962;-88
2021/12/01 07:44:43;;;;;;;;;;;;;;;11.98;61.77;98341.66;4986570;28;7697;-88
2021/12/01 07:47:08;;;;;;;;;;;;;;;11.97;61.89;98321.94;4979827;28;7185;-88
2021/12/01 07:49:35;;;;;;;;;;;;;;;11.94;61.51;98333.06;5002528;28;6942;-88
2021/12/01 07:52:04;;;;;;;;;;;;;;;11.94;61.68;98338.22;4983630;28;6962;-88
2021/12/01 07:54:30;;;;;;;;;;;;;;;11.94;61.70;98321.94;4979538;28;7048;-88
2021/12/01 07:56:55;;;;;;;;;;;;;;;11.94;62.39;98306.53;5001642;28;6964;-88
2021/12/01 07:59:22;;;;;;;;;;;;;;;11.92;62.31;98308.22;4985653;28;6807;-88
2021/12/01 08:01:48;;;;;;;;;;;;;;;11.90;62.74;98299.66;4967429;28;7074;-88
2021/12/01 08:04:14;;;;;;;;;;;;;;;11.88;62.36;98303.91;4969978;28;6974;-87
2021/12/01 08:06:40;;;;;;;;;;;;;;;11.88;62.75;98301.31;4963024;28;6940;-87
2021/12/01 08:09:07;;;;;;;;;;;;;;;11.89;62.80;98292.81;4971337;28;8680;-88
2021/12/01 08:11:33;;;;;;;;;;;;;;;11.90;62.42;98281.69;4956153;28;7003;-88
2021/12/01 08:14:00;;;;;;;;;;;;;;;11.93;62.64;98299.69;4980751;28;7077;-88
2021/12/01 08:16:26;;;;;;;;;;;;;;;11.95;62.35;98283.44;4997517;28;7004;-88
2021/12/01 08:18:54;;;;;;;;;;;;;;;11.99;62.84;98275.75;5003774;28;7381;-88
2021/12/01 08:21:22;;;;;;;;;;;;;;;12.02;62.64;98279.25;5002079;28;6816;-88
2021/12/01 08:23:48;;;;;;;;;;;;;;;12.04;62.23;98269.84;4971574;28;7407;-88
2021/12/01 08:26:14;;;;;;;;;;;;;;;12.06;62.69;98291.25;4981139;28;7067;-87
2021/12/01 08:28:42;;;;;;;;;;;;;;;12.09;62.48;98275.03;4982885;28;6796;-88
2021/12/01 08:31:08;;;;;;;;;;;;;;;12.12;62.03;98289.59;4969583;28;6998;-88
2021/12/01 08:33:34;;;;;;;;;;;;;;;12.16;62.30;98275.91;5004039;28;8489;-88
2021/12/01 08:36:00;;;;;;;;;;;;;;;12.15;62.13;98281.91;4966329;28;7176;-88
2021/12/01 08:38:26;;;;;;;;;;;;;;;12.16;61.87;98281.06;4981180;28;8479;-88
2021/12/01 08:40:52;;;;;;;;;;;;;;;12.18;61.84;98269.94;4987457;28;7038;-88
2021/12/01 08:43:18;;;;;;;;;;;;;;;12.17;62.62;98272.53;4965116;28;7081;-88
2021/12/01 08:45:44;;;;;;;;;;;;;;;12.16;61.95;98276.78;4947809;28;6959;-88
2021/12/01 08:48:10;;;;;;;;;;;;;;;12.17;62.16;98277.66;4966892;28;6975;-88
2021/12/01 08:50:36;;;;;;;;;;;;;;;12.17;62.63;98277.66;4978699;28;6985;-88
2021/12/01 08:53:02;;;;;;;;;;;;;;;12.15;62.42;98266.50;4970203;28;6960;-88
2021/12/01 08:55:28;;;;;;;;;;;;;;;12.14;63.02;98267.34;5002322;28;6944;-88
2021/12/01 08:57:54;;;;;;;;;;;;;;;12.11;62.69;98270.75;4989121;28;7032;-88
2021/12/01 09:00:22;;;;;;;;;;;;;;;12.10;63.01;98233.09;4964484;28;6957;-88
2021/12/01 09:02:48;;;;;;;;;;;;;;;12.13;63.07;98260.50;5002430;28;8425;-88
2021/12/01 09:05:14;;;;;;;;;;;;;;;12.14;62.88;98263.09;4986370;28;8212;-88
2021/12/01 09:07:40;;;;;;;;;;;;;;;12.15;63.19;98271.63;4968835;28;8115;-88
2021/12/01 09:10:07;;;;;;;;;;;;;;;12.17;62.97;98272.53;5001195;28;7040;-88
2021/12/01 09:12:34;;;;;;;;;;;;;;;12.17;63.08;98273.38;5001651;28;7001;-88
2021/12/01 09:15:00;;;;;;;;;;;;;;;12.19;62.96;98263.13;4962451;28;8357;-88
2021/12/01 09:17:25;;;;;;;;;;;;;;;12.22;62.85;98261.44;4963610;28;7234;-88
2021/12/01 09:19:53;;;;;;;;;;;;;;;12.24;63.45;98261.44;4987301;28;6986;-89
2021/12/01 09:22:20;;;;;;;;;;;;;;;12.28;63.17;98263.19;4995324;28;7284;-88
2021/12/01 09:24:48;;;;;;;;;;;;;;;12.32;62.92;98259.78;4946704;28;6972;-88
2021/12/01 09:27:15;;;;;;;;;;;;;;;12.36;62.89;98253.81;4986654;28;7204;-88
2021/12/01 09:29:40;;;;;;;;;;;;;;;12.40;62.68;98244.41;4986319;28;6996;-89
2021/12/01 09:32:07;;;;;;;;;;;;;;;12.45;63.06;98247.88;4987005;28;7172;-88
2021/12/01 09:34:33;;;;;;;;;;;;;;;12.48;62.79;98247.88;4978945;28;7223;-88
2021/12/01 09:36:59;;;;;;;;;;;;;;;12.55;62.72;98247.94;4952604;28;6981;-88
2021/12/01 09:39:25;;;;;;;;;;;;;;;12.56;62.49;98254.78;4970435;28;6850;-89
2021/12/01 09:41:54;;;;;;;;;;;;;;;12.57;62.90;98262.50;5019169;28;7000;-88
2021/12/01 09:44:20;;;;;;;;;;;;;;;12.55;62.77;98250.50;4963110;28;6968;-88
2021/12/01 09:46:46;;;;;;;;;;;;;;;12.54;63.10;98257.31;4946611;28;8351;-89
2021/12/01 09:49:11;;;;;;;;;;;;;;;12.53;63.21;98250.47;5001732;28;6971;-88
2021/12/01 09:51:38;;;;;;;;;;;;;;;12.53;62.71;98265.88;4947496;28;7141;-88
2021/12/01 09:54:04;;;;;;;;;;;;;;;12.53;62.48;98244.50;4946930;28;7206;-88
2021/12/01 09:56:33;;;;;;;;;;;;;;;12.55;62.99;98260.78;4967872;28;6992;-88
2021/12/01 09:58:59;;;;;;;;;;;;;;;12.58;63.19;98248.81;4969122;28;7204;-88
2021/12/01 10:01:27;;;;;;;;;;;;;;;12.58;62.85;98246.22;4985111;28;6975;-88
2021/12/01 10:03:53;;;;;;;;;;;;;;;12.59;63.21;98239.38;4969210;28;6968;-88
2021/12/01 10:06:26;;;;;;;;;;;;;;;12.61;62.94;98238.53;4946089;28;6974;-88
2021/12/01 10:09:04;;;;;;;;;;;;;;;12.62;62.77;98240.25;4985510;28;7055;-88
2021/12/01 10:11:31;;;;;;;;;;;;;;;12.64;62.72;98232.56;4970057;28;6826;-88
2021/12/01 10:14:06;;;;;;;;;;;;;;;12.68;63.21;98220.59;4981807;28;9351;-88
2021/12/01 10:16:37;;;;;;;;;;;;;;;12.70;63.35;98227.44;4969843;28;7660;-88
2021/12/01 10:19:06;;;;;;;;;;;;;;;12.71;63.36;98230.88;5002312;28;8721;-88
2021/12/01 10:21:35;;;;;;;;;;;;;;;12.72;62.99;98212.03;4945387;28;8420;-88
2021/12/01 10:24:19;;;;;;;;;;;;;;;12.74;62.85;98216.31;4986298;28;6832;-88
2021/12/01 10:26:58;;;;;;;;;;;;;;;12.73;63.77;98209.47;4948216;28;7176;-89
2021/12/01 10:29:30;;;;;;;;;;;;;;;12.77;63.16;98202.63;4954889;28;8698;-89
2021/12/01 10:31:57;;;;;;;;;;;;;;;12.78;63.83;98199.19;4980527;28;7218;-88
2021/12/01 10:34:31;;;;;;;;;;;;;;;12.80;63.49;98187.22;4969048;28;7004;-89
2021/12/01 10:37:27;;;;;;;;;;;;;;;12.89;63.25;98194.09;4987534;28;7513;-88
2021/12/01 10:40:20;;;;;;;;;;;;;;;12.97;63.04;98194.13;4949277;28;7089;-89
2021/12/01 10:43:10;;;;;;;;;;;;;;;13.02;63.53;98189.84;4981610;28;7095;-89
2021/12/01 10:45:45;;;;;;;;;;;;;;;13.06;63.59;98189.00;4967344;28;7091;-89
2021/12/01 10:48:25;;;;;;;;;;;;;;;13.08;62.65;98184.72;4964063;28;8435;-89
2021/12/01 10:50:52;;;;;;;;;;;;;;;13.08;63.28;98181.28;5001908;28;6993;-89
2021/12/01 10:53:23;;;;;;;;;;;;;;;13.10;63.74;98177.84;5002124;28;7186;-88
2021/12/01 10:56:01;;;;;;;;;;;;;;;13.13;63.30;98180.44;4991160;28;7306;-89
2021/12/01 10:58:35;;;;;;;;;;;;;;;13.14;62.68;98171.88;4990792;28;8381;-88
2021/12/01 11:01:03;;;;;;;;;;;;;;;13.13;63.82;98154.72;4969405;28;7379;-88
2021/12/01 11:03:31;;;;;;;;;;;;;;;13.17;63.51;98166.72;5003228;28;8815;-88
2021/12/01 11:06:23;;;;;;;;;;;;;;;13.22;63.64;98160.72;4970651;28;7208;-88
2021/12/01 11:08:57;;;;;;;;;;;;;;;13.24;62.69;98157.31;4964173;28;7203;-89
2021/12/01 11:11:42;;;;;;;;;;;;;;;13.25;62.60;98153.88;4960865;28;7038;-88
2021/12/01 11:14:17;;;;;;;;;;;;;;;13.25;62.60;98159.03;4986757;28;7197;-88
2021/12/01 11:16:47;;;;;;;;;;;;;;;13.24;62.91;98159.88;4960554;28;7240;-88
2021/12/01 11:19:13;;;;;;;;;;;;;;;13.25;62.77;98165.91;4947326;28;8400;-88
2021/12/01 11:21:40;;;;;;;;;;;;;;;13.25;62.59;98163.31;4969943;28;6879;-88
2021/12/01 11:24:10;;;;;;;;;;;;;;;13.23;63.54;98165.00;4986816;28;6991;-88
2021/12/01 11:26:41;;;;;;;;;;;;;;;13.25;63.46;98163.31;4985870;28;7487;-88
2021/12/01 11:29:12;;;;;;;;;;;;;;;13.24;62.88;98171.91;4966040;28;7008;-88
2021/12/01 11:31:45;;;;;;;;;;;;;;;13.24;62.56;98177.88;4961067;28;7077;-88
2021/12/01 11:34:16;;;;;;;;;;;;;;;13.24;63.34;98170.16;4992250;28;6968;-88
2021/12/01 11:36:49;;;;;;;;;;;;;;;13.27;62.93;98183.03;4976978;28;6972;-88
2021/12/01 11:39:21;;;;;;;;;;;;;;;13.30;63.01;98177.03;4990794;28;6971;-88
2021/12/01 11:41:49;;;;;;;;;;;;;;;13.36;62.60;98166.75;4975478;28;7298;-89
2021/12/01 11:44:18;;;;;;;;;;;;;;;13.40;62.87;98178.75;5004499;28;6797;-88
2021/12/01 11:46:44;;;;;;;;;;;;;;;13.43;62.41;98172.75;4974639;28;8529;-88
2021/12/01 11:49:17;;;;;;;;;;;;;;;13.43;62.20;98165.91;4989040;28;6998;-88
2021/12/01 11:51:57;;;;;;;;;;;;;;;13.43;61.81;98160.78;4958040;28;7161;-88
2021/12/01 11:54:27;;;;;;;;;;;;;;;13.44;61.91;98171.91;4990965;28;7057;-88
2021/12/01 11:57:07;;;;;;;;;;;;;;;13.46;61.87;98172.78;4989342;28;7275;-88
2021/12/01 11:59:43;;;;;;;;;;;;;;;13.46;61.57;98172.78;4954635;28;8061;-88
2021/12/01 12:02:15;;;;;;;;;;;;;;;13.46;61.95;98181.38;4985641;28;6966;-89
2021/12/01 12:04:57;;;;;;;;;;;;;;;13.46;60.67;98188.22;5016327;28;8499;-88
2021/12/01 12:07:25;;;;;;;;;;;;;;;13.43;61.69;98183.06;4988219;28;7273;-88
2021/12/01 12:10:14;;;;;;;;;;;;;;;13.45;60.85;98181.38;4963505;28;7021;-88
2021/12/01 12:12:45;;;;;;;;;;;;;;;13.43;60.84;98193.34;5002732;28;8470;-88
2021/12/01 12:15:34;;;;;;;;;;;;;;;13.42;61.45;98202.81;4977120;28;7152;-88
2021/12/01 12:18:00;;;;;;;;;;;;;;;13.40;61.22;98194.19;5005449;28;6967;-88
2021/12/01 12:20:30;;;;;;;;;;;;;;;13.40;60.96;98191.63;4989065;28;7183;-88
2021/12/01 12:23:05;;;;;;;;;;;;;;;13.40;60.21;98204.47;4981878;28;7202;-89
2021/12/01 12:25:49;;;;;;;;;;;;;;;13.38;61.04;98205.38;4970186;28;7191;-88
2021/12/01 12:28:36;;;;;;;;;;;;;;;13.33;60.66;98202.78;4967922;28;7003;-88
2021/12/01 12:31:18;;;;;;;;;;;;;;;13.27;60.34;98215.63;5004044;28;8447;-88
2021/12/01 12:34:01;;;;;;;;;;;;;;;13.23;59.27;98208.75;4969670;28;7431;-88
2021/12/01 12:36:46;;;;;;;;;;;;;;;13.20;60.00;98217.34;4982647;28;7252;-88
2021/12/01 12:39:25;;;;;;;;;;;;;;;13.23;59.95;98224.16;4973705;28;7187;-88
2021/12/01 12:41:54;;;;;;;;;;;;;;;13.25;59.35;98225.06;4991458;28;7923;-89
2021/12/01 12:44:37;;;;;;;;;;;;;;;13.27;58.80;98220.78;5005356;28;7093;-89
2021/12/01 12:47:28;;;;;;;;;;;;;;;13.24;59.03;98215.63;4972989;28;7377;-88
2021/12/01 12:49:57;;;;;;;;;;;;;;;13.22;58.49;98225.91;4989607;28;6796;-88
2021/12/01 12:52:25;;;;;;;;;;;;;;;13.20;57.98;98228.47;4987784;28;7053;-88
2021/12/01 12:55:03;;;;;;;;;;;;;;;13.17;58.36;98225.91;5003892;28;7216;-88
2021/12/01 12:57:49;;;;;;;;;;;;;;;13.14;58.08;98230.16;5003177;28;7192;-88
2021/12/01 13:00:33;;;;;;;;;;;;;;;13.11;58.52;98238.72;5005324;28;8353;-89
2021/12/01 13:03:19;;;;;;;;;;;;;;;13.11;58.29;98232.75;4970329;28;7010;-88
2021/12/01 13:05:46;;;;;;;;;;;;;;;13.11;58.67;98243.88;5002065;28;6972;-89
2021/12/01 13:08:37;;;;;;;;;;;;;;;13.13;57.65;98237.00;4988124;28;7202;-88
2021/12/01 13:11:11;;;;;;;;;;;;;;;13.12;58.00;98240.44;4987886;28;8040;-89